Boo Sonier — WDG3281 — position and weather

sailwx.info

Track history (hours):
 
Tides and Currents Weather Stations Pressure Air Temp Water Temp Dewpoint Dewpoint Depression Visibility Wind Speed Wind Dir Waves Ship Positions

Boo Sonier

Owner: LeBeouf Bros. Towing, LLC, Houma, LA. More information available from US FCC via Universal Licensing System and Coast Guard Vessel Documentation Center.

Last reported at 2015-Sep-04 15:29 UTC. Time now 2015-Sep-04 16:34 UTC.
Position N 29°34' W 090°36'.

Length 21 m.

Type: Tug. MMSI: 367524420.

Date/timePositionNaut miles runAvg speedWind from/ knotsBaromVisibWave heightAir tempDewpointWater temp
2015-Sep-04 15:29N 29°34' W 090°36'0 0.0
2015-Sep-04 14:29N 29°34' W 090°36'0 0.0
2015-Sep-04 13:29N 29°34' W 090°36'0 0.0
2015-Sep-04 12:29N 29°34' W 090°36'0 0.0
2015-Sep-04 11:29N 29°34' W 090°36'0 0.0
2015-Sep-04 10:17N 29°34' W 090°36'0 0.0
2015-Sep-04 09:23N 29°34' W 090°36'0 0.0
2015-Sep-04 08:29N 29°34' W 090°36'0 0.0
2015-Sep-04 07:29N 29°34' W 090°36'0 0.0
2015-Sep-04 06:29N 29°34' W 090°36'0 0.0
2015-Sep-04 05:29N 29°34' W 090°36'0 0.0
2015-Sep-04 04:29N 29°34' W 090°36'0 0.0
2015-Sep-04 03:29N 29°34' W 090°36'0 0.0
2015-Sep-04 02:29N 29°34' W 090°36'0 0.0
2015-Sep-04 01:29N 29°34' W 090°36'0 0.0
2015-Sep-04 00:29N 29°34' W 090°36'0 0.0
2015-Sep-03 23:29N 29°34' W 090°36'0 0.0
2015-Sep-03 22:29N 29°34' W 090°36'0 0.0
2015-Sep-03 21:29N 29°34' W 090°36'0 0.0
2015-Sep-03 20:29N 29°34' W 090°36'0 0.0
2015-Sep-03 19:29N 29°34' W 090°36'0 0.2
2015-Sep-03 18:33N 29°34' W 090°36'1 0.5
2015-Sep-03 17:33N 29°35' W 090°36'3 2.7
2015-Sep-03 16:33N 29°34' W 090°33'39 1.5
2015-Sep-02 14:31N 29°60' W 089°59'0 0.0
2015-Sep-02 12:10N 29°60' W 089°59'0 0.0
2015-Sep-02 06:16N 29°60' W 089°59'5 6.0
2015-Sep-02 05:31N 30°01' W 089°54'  
2015-Aug-30 06:33N 29°60' W 090°00'3 1.2
2015-Aug-30 04:06N 29°57' W 090°01'7 0.2
2015-Aug-28 05:22N 29°50' W 090°03'30 3.9
2015-Aug-27 21:33N 29°34' W 090°32'4 3.6
2015-Aug-27 20:32N 29°35' W 090°36'0 0.1
2015-Aug-27 19:33N 29°35' W 090°36'0 0.3
2015-Aug-27 18:07N 29°34' W 090°36'0 0.0
2015-Aug-27 17:31N 29°34' W 090°36'0 0.4
2015-Aug-27 16:32N 29°35' W 090°36'4 4.6
2015-Aug-27 15:33N 29°36' W 090°41'1 1.2
2015-Aug-27 14:33N 29°37' W 090°42'0 0.0
2015-Aug-27 13:33N 29°37' W 090°42'0 0.0
2015-Aug-27 12:33N 29°37' W 090°42'0 0.0
2015-Aug-27 11:33N 29°37' W 090°42'0 0.0
2015-Aug-27 10:33N 29°37' W 090°42'0 0.0
2015-Aug-27 09:33N 29°37' W 090°42'0 0.0
2015-Aug-27 08:33N 29°37' W 090°42'0 0.0
2015-Aug-27 07:33N 29°37' W 090°42'0 0.0
2015-Aug-27 06:33N 29°37' W 090°42'0 0.0
2015-Aug-27 05:33N 29°37' W 090°42'0 0.0
2015-Aug-27 04:33N 29°37' W 090°42'0 0.4
2015-Aug-27 03:33N 29°37' W 090°41'3 3.2
2015-Aug-27 02:33N 29°35' W 090°38'2 2.4
2015-Aug-27 01:33N 29°34' W 090°36'0 0.1
2015-Aug-27 00:22N 29°34' W 090°36'0 0.0
2015-Aug-26 23:28N 29°34' W 090°36'0 0.0
2015-Aug-26 22:28N 29°34' W 090°36'0 0.0
2015-Aug-26 21:16N 29°34' W 090°36'0 0.0
2015-Aug-26 20:28N 29°34' W 090°36'0 0.4
2015-Aug-26 19:31N 29°35' W 090°36'1 0.5
2015-Aug-26 18:27N 29°35' W 090°36'1 0.4
2015-Aug-26 16:04N 29°34' W 090°36'1 1.6
2015-Aug-26 15:32N 29°35' W 090°36'1 0.7
2015-Aug-26 14:32N 29°35' W 090°35'0 0.4
2015-Aug-26 13:33N 29°34' W 090°36'0 0.0
2015-Aug-26 12:33N 29°34' W 090°36'0 0.0
2015-Aug-26 11:33N 29°34' W 090°36'0 0.0
2015-Aug-26 10:33N 29°34' W 090°36'0 0.0
2015-Aug-26 09:33N 29°34' W 090°36'0 0.0
2015-Aug-26 08:27N 29°34' W 090°36'0 0.0
2015-Aug-26 07:33N 29°34' W 090°36'0 0.0
2015-Aug-26 06:33N 29°34' W 090°36'0 0.0
2015-Aug-26 05:27N 29°34' W 090°36'0 0.0
2015-Aug-26 04:33N 29°34' W 090°36'0 0.0
2015-Aug-26 03:33N 29°34' W 090°36'0 0.0
2015-Aug-26 02:33N 29°34' W 090°36'0 0.0
2015-Aug-26 01:33N 29°34' W 090°36'0 0.0
2015-Aug-26 00:33N 29°34' W 090°36'0 0.0
2015-Aug-25 23:33N 29°34' W 090°36'0 0.0
2015-Aug-25 22:33N 29°34' W 090°36'0 0.0
2015-Aug-25 21:21N 29°34' W 090°36'0 0.0
2015-Aug-25 20:33N 29°34' W 090°36'0 0.0
2015-Aug-25 19:33N 29°34' W 090°36'1 0.7
2015-Aug-25 18:20N 29°35' W 090°36'1 0.8
2015-Aug-25 17:34N 29°35' W 090°36'0 0.3
2015-Aug-25 16:20N 29°34' W 090°36'0 0.0
2015-Aug-25 15:32N 29°34' W 090°36'  
Track history (hours):
 
Tides and Currents Weather Stations Pressure Air Temp Water Temp Dewpoint Dewpoint Depression Visibility Wind Speed Wind Dir Waves Ship Positions

Boo Sonier

Owner: LeBeouf Bros. Towing, LLC, Houma, LA. More information available from US FCC via Universal Licensing System and Coast Guard Vessel Documentation Center.

Last reported at 2015-Sep-04 15:29 UTC. Time now 2015-Sep-04 16:34 UTC.
Position N 29°34' W 090°36'.

Length 21 m.

Type: Tug. MMSI: 367524420.

Date/timePositionNaut miles runAvg speedWind from/ knotsBaromVisibWave heightAir tempDewpointWater temp
2015-Sep-04 15:29N 29°34' W 090°36'0 0.0
2015-Sep-04 14:29N 29°34' W 090°36'0 0.0
2015-Sep-04 13:29N 29°34' W 090°36'0 0.0
2015-Sep-04 12:29N 29°34' W 090°36'0 0.0
2015-Sep-04 11:29N 29°34' W 090°36'0 0.0
2015-Sep-04 10:17N 29°34' W 090°36'0 0.0
2015-Sep-04 09:23N 29°34' W 090°36'0 0.0
2015-Sep-04 08:29N 29°34' W 090°36'0 0.0
2015-Sep-04 07:29N 29°34' W 090°36'0 0.0
2015-Sep-04 06:29N 29°34' W 090°36'0 0.0
2015-Sep-04 05:29N 29°34' W 090°36'0 0.0
2015-Sep-04 04:29N 29°34' W 090°36'0 0.0
2015-Sep-04 03:29N 29°34' W 090°36'0 0.0
2015-Sep-04 02:29N 29°34' W 090°36'0 0.0
2015-Sep-04 01:29N 29°34' W 090°36'0 0.0
2015-Sep-04 00:29N 29°34' W 090°36'0 0.0
2015-Sep-03 23:29N 29°34' W 090°36'0 0.0
2015-Sep-03 22:29N 29°34' W 090°36'0 0.0
2015-Sep-03 21:29N 29°34' W 090°36'0 0.0
2015-Sep-03 20:29N 29°34' W 090°36'0 0.0
2015-Sep-03 19:29N 29°34' W 090°36'0 0.2
2015-Sep-03 18:33N 29°34' W 090°36'1 0.5
2015-Sep-03 17:33N 29°35' W 090°36'3 2.7
2015-Sep-03 16:33N 29°34' W 090°33'39 1.5
2015-Sep-02 14:31N 29°60' W 089°59'0 0.0
2015-Sep-02 12:10N 29°60' W 089°59'0 0.0
2015-Sep-02 06:16N 29°60' W 089°59'5 6.0
2015-Sep-02 05:31N 30°01' W 089°54'  
2015-Aug-30 06:33N 29°60' W 090°00'3 1.2
2015-Aug-30 04:06N 29°57' W 090°01'7 0.2
2015-Aug-28 05:22N 29°50' W 090°03'30 3.9
2015-Aug-27 21:33N 29°34' W 090°32'4 3.6
2015-Aug-27 20:32N 29°35' W 090°36'0 0.1
2015-Aug-27 19:33N 29°35' W 090°36'0 0.3
2015-Aug-27 18:07N 29°34' W 090°36'0 0.0
2015-Aug-27 17:31N 29°34' W 090°36'0 0.4
2015-Aug-27 16:32N 29°35' W 090°36'4 4.6
2015-Aug-27 15:33N 29°36' W 090°41'1 1.2
2015-Aug-27 14:33N 29°37' W 090°42'0 0.0
2015-Aug-27 13:33N 29°37' W 090°42'0 0.0
2015-Aug-27 12:33N 29°37' W 090°42'0 0.0
2015-Aug-27 11:33N 29°37' W 090°42'0 0.0
2015-Aug-27 10:33N 29°37' W 090°42'0 0.0
2015-Aug-27 09:33N 29°37' W 090°42'0 0.0
2015-Aug-27 08:33N 29°37' W 090°42'0 0.0
2015-Aug-27 07:33N 29°37' W 090°42'0 0.0
2015-Aug-27 06:33N 29°37' W 090°42'0 0.0
2015-Aug-27 05:33N 29°37' W 090°42'0 0.0
2015-Aug-27 04:33N 29°37' W 090°42'0 0.4
2015-Aug-27 03:33N 29°37' W 090°41'3 3.2
2015-Aug-27 02:33N 29°35' W 090°38'2 2.4
2015-Aug-27 01:33N 29°34' W 090°36'0 0.1
2015-Aug-27 00:22N 29°34' W 090°36'0 0.0
2015-Aug-26 23:28N 29°34' W 090°36'0 0.0
2015-Aug-26 22:28N 29°34' W 090°36'0 0.0
2015-Aug-26 21:16N 29°34' W 090°36'0 0.0
2015-Aug-26 20:28N 29°34' W 090°36'0 0.4
2015-Aug-26 19:31N 29°35' W 090°36'1 0.5
2015-Aug-26 18:27N 29°35' W 090°36'1 0.4
2015-Aug-26 16:04N 29°34' W 090°36'1 1.6
2015-Aug-26 15:32N 29°35' W 090°36'1 0.7
2015-Aug-26 14:32N 29°35' W 090°35'0 0.4
2015-Aug-26 13:33N 29°34' W 090°36'0 0.0
2015-Aug-26 12:33N 29°34' W 090°36'0 0.0
2015-Aug-26 11:33N 29°34' W 090°36'0 0.0
2015-Aug-26 10:33N 29°34' W 090°36'0 0.0
2015-Aug-26 09:33N 29°34' W 090°36'0 0.0
2015-Aug-26 08:27N 29°34' W 090°36'0 0.0
2015-Aug-26 07:33N 29°34' W 090°36'0 0.0
2015-Aug-26 06:33N 29°34' W 090°36'0 0.0
2015-Aug-26 05:27N 29°34' W 090°36'0 0.0
2015-Aug-26 04:33N 29°34' W 090°36'0 0.0
2015-Aug-26 03:33N 29°34' W 090°36'0 0.0
2015-Aug-26 02:33N 29°34' W 090°36'0 0.0
2015-Aug-26 01:33N 29°34' W 090°36'0 0.0
2015-Aug-26 00:33N 29°34' W 090°36'0 0.0
2015-Aug-25 23:33N 29°34' W 090°36'0 0.0
2015-Aug-25 22:33N 29°34' W 090°36'0 0.0
2015-Aug-25 21:21N 29°34' W 090°36'0 0.0
2015-Aug-25 20:33N 29°34' W 090°36'0 0.0
2015-Aug-25 19:33N 29°34' W 090°36'1 0.7
2015-Aug-25 18:20N 29°35' W 090°36'1 0.8
2015-Aug-25 17:34N 29°35' W 090°36'0 0.3
2015-Aug-25 16:20N 29°34' W 090°36'0 0.0
2015-Aug-25 15:32N 29°34' W 090°36'  

Dump ship's entire track history